Time;durP1;ratioP1;P1;durP2;ratioP2;P2;SDS_P1;SDS_P2;PMS_P1;PMS_P2;Temp;Humidity;BMP_temperature;BMP_pressure;BME280_temperature;BME280_humidity;BME280_pressure;Samples;Min_cycle;Max_cycle;Signal;HPM_P1;HPM_P2
2022/08/16 00:02:23;;;;;;;38.60;22.00;;;;;;;24.08;48.73;92839.41;4913140;29;20131;-94
2022/08/16 00:04:59;;;;;;;41.70;23.65;;;;;;;24.07;48.62;92846.94;4908330;28;20069;-92
2022/08/16 00:07:28;;;;;;;36.72;20.40;;;;;;;24.06;48.96;92848.25;4980021;28;20034;-93
2022/08/16 00:09:54;;;;;;;37.88;21.90;;;;;;;24.08;48.61;92845.66;4995027;28;20045;-93
2022/08/16 00:12:29;;;;;;;39.17;21.40;;;;;;;24.07;48.79;92844.19;4971072;28;20101;-92
2022/08/16 00:15:02;;;;;;;36.65;21.58;;;;;;;24.06;48.72;92839.97;4974257;28;20079;-93
2022/08/16 00:17:31;;;;;;;39.10;22.45;;;;;;;24.04;48.69;92842.53;5002877;28;20428;-92
2022/08/16 00:20:08;;;;;;;;;;;;;;;24.07;48.64;92848.97;4984065;28;20045;-92
2022/08/16 00:23:04;;;;;;;40.88;21.67;;;;;;;24.06;48.63;92858.56;4979339;28;19928;-93
2022/08/16 00:25:43;;;;;;;37.65;21.60;;;;;;;24.06;48.71;92858.56;4973196;28;20599;-92
2022/08/16 00:28:11;;;;;;;40.45;22.30;;;;;;;24.07;48.82;92857.25;4984519;28;20058;-93
2022/08/16 00:30:45;;;;;;;37.13;20.13;;;;;;;24.05;48.63;92855.06;4991264;28;20508;-92
2022/08/16 00:33:16;;;;;;;41.80;22.92;;;;;;;24.05;48.74;92851.56;5005263;28;20093;-93
2022/08/16 00:35:43;;;;;;;36.55;21.15;;;;;;;24.05;48.69;92860.59;4952588;28;20117;-92
2022/08/16 00:38:31;;;;;;;42.97;22.63;;;;;;;24.04;48.80;92861.88;5002734;28;20049;-93
2022/08/16 00:41:00;;;;;;;34.67;21.20;;;;;;;24.05;48.67;92859.84;4974962;28;20042;-93
2022/08/16 00:43:33;;;;;;;33.40;19.77;;;;;;;24.04;48.76;92869.44;4918183;29;20039;-92
2022/08/16 00:46:23;;;;;;;37.72;20.90;;;;;;;24.05;48.60;92868.13;4913059;29;20148;-93
2022/08/16 00:48:59;;;;;;;;;;;;;;;24.04;48.73;92864.63;4925038;29;20039;-93
2022/08/16 00:51:56;;;;;;;35.92;21.17;;;;;;;24.02;48.67;92867.25;4932338;29;19918;-93
2022/08/16 00:54:28;;;;;;;39.05;21.55;;;;;;;24.02;48.81;92872.78;4911175;29;20231;-93
2022/08/16 00:56:56;;;;;;;38.78;21.80;;;;;;;24.03;48.75;92871.47;4842012;29;20149;-92
2022/08/16 00:59:25;;;;;;;38.05;20.75;;;;;;;24.02;48.83;92869.28;4875105;29;20077;-92
2022/08/16 01:02:05;;;;;;;38.15;21.60;;;;;;;24.02;48.67;92878.28;4868191;29;20041;-93
2022/08/16 01:04:34;;;;;;;35.42;20.60;;;;;;;24.02;48.76;92883.81;4829763;29;20045;-93
2022/08/16 01:07:12;;;;;;;35.30;20.73;;;;;;;24.02;48.74;92880.31;4832632;29;20050;-93
2022/08/16 01:09:43;;;;;;;39.83;22.02;;;;;;;24.02;48.77;92880.31;4892696;29;20176;-93
2022/08/16 01:12:18;;;;;;;36.90;21.10;;;;;;;24.02;48.75;92889.34;4919449;29;20051;-92
2022/08/16 01:14:48;;;;;;;39.63;20.33;;;;;;;24.04;48.54;92891.50;4909780;28;20047;-92
2022/08/16 01:17:18;;;;;;;35.50;19.80;;;;;;;24.02;48.77;92891.38;4937486;28;20316;-92
2022/08/16 01:19:59;;;;;;;35.10;20.58;;;;;;;24.01;48.67;92890.63;4951780;28;20047;-92
2022/08/16 01:22:40;;;;;;;34.47;18.77;;;;;;;24.01;48.76;92892.66;4932922;28;20050;-92
2022/08/16 01:25:13;;;;;;;34.85;19.60;;;;;;;24.03;48.64;92901.84;4901669;29;20115;-92
2022/08/16 01:27:57;;;;;;;34.38;20.70;;;;;;;24.01;48.80;92898.91;4925343;28;20035;-92
2022/08/16 01:30:29;;;;;;;34.78;19.10;;;;;;;24.01;48.78;92895.41;4937490;28;20078;-92
2022/08/16 01:32:58;;;;;;;35.97;19.65;;;;;;;24.01;48.58;92887.88;4951568;28;20043;-92
2022/08/16 01:35:34;;;;;;;34.70;19.77;;;;;;;24.01;48.72;92900.94;4960345;28;20040;-92
2022/08/16 01:38:28;;;;;;;31.45;18.27;;;;;;;23.99;48.70;92898.00;4951554;28;20059;-92
2022/08/16 01:41:00;;;;;;;31.95;18.83;;;;;;;24.01;48.77;92901.69;4976135;28;20603;-91
2022/08/16 01:43:35;;;;;;;34.92;19.58;;;;;;;24.00;48.67;92897.44;4992989;28;20057;-92
2022/08/16 01:46:05;;;;;;;31.45;19.25;;;;;;;24.00;48.70;92902.22;4987580;28;20046;-92
2022/08/16 01:48:34;;;;;;;31.42;18.67;;;;;;;24.00;48.60;92907.75;4977885;28;20129;-93
2022/08/16 01:51:03;;;;;;;30.20;17.98;;;;;;;24.01;48.67;92909.22;4891980;28;20038;-92
2022/08/16 01:53:40;;;;;;;33.78;19.20;;;;;;;23.99;48.60;92903.53;4972067;28;20084;-94
2022/08/16 01:56:10;;;;;;;35.25;18.75;;;;;;;23.99;48.73;92904.25;4971922;28;20038;-92
2022/08/16 01:58:57;;;;;;;30.50;17.45;;;;;;;23.99;48.60;92909.78;4958530;28;20058;-92
2022/08/16 02:01:35;;;;;;;30.88;17.17;;;;;;;23.99;48.64;92915.31;4940838;28;20042;-92
2022/08/16 02:04:06;;;;;;;29.25;16.58;;;;;;;23.98;48.73;92913.09;4972542;28;20046;-92
2022/08/16 02:06:34;;;;;;;32.33;17.38;;;;;;;23.99;48.76;92904.25;4925144;29;20050;-92
2022/08/16 02:09:01;;;;;;;25.80;16.60;;;;;;;23.99;48.48;92907.03;4917103;29;20102;-92
2022/08/16 02:11:35;;;;;;;29.08;17.05;;;;;;;23.99;48.76;92918.06;4968231;28;20050;-92
2022/08/16 02:14:31;;;;;;;26.08;15.82;;;;;;;23.98;48.66;92904.81;4947065;28;20073;-93
2022/08/16 02:17:04;;;;;;;27.70;15.50;;;;;;;23.96;48.76;92910.91;4966101;28;20506;-93
2022/08/16 02:19:35;;;;;;;27.42;16.48;;;;;;;23.96;48.79;92905.38;4968062;28;20039;-92
2022/08/16 02:22:05;;;;;;;27.42;16.00;;;;;;;23.98;48.67;92904.81;4952714;28;20218;-92
2022/08/16 02:24:32;;;;;;;;;;;;;;;23.98;48.63;92905.56;4943436;28;20443;-92
2022/08/16 02:26:59;;;;;;;28.67;16.83;;;;;;;23.97;48.71;92897.81;4976485;28;19921;-93
2022/08/16 02:29:26;;;;;;;28.55;15.13;;;;;;;23.96;48.64;92897.09;4984096;28;20042;-92
2022/08/16 02:32:01;;;;;;;25.90;15.88;;;;;;;23.96;48.68;92888.06;4982549;28;20144;-93
2022/08/16 02:34:38;;;;;;;25.40;15.55;;;;;;;23.95;48.60;92887.34;4966246;28;20043;-92
2022/08/16 02:37:09;;;;;;;32.35;18.00;;;;;;;23.98;48.40;92896.53;5003709;28;20172;-91
2022/08/16 02:39:43;;;;;;;27.92;15.98;;;;;;;23.96;48.71;92885.31;4964653;28;20687;-94
2022/08/16 02:42:14;;;;;;;29.45;15.60;;;;;;;23.95;48.73;92890.09;4954490;28;20062;-92
2022/08/16 02:44:42;;;;;;;28.85;16.00;;;;;;;23.94;48.63;92896.91;4950804;28;20047;-92
2022/08/16 02:47:22;;;;;;;26.77;15.48;;;;;;;23.95;48.74;92903.19;4988700;28;20053;-92
2022/08/16 02:49:50;;;;;;;26.30;15.05;;;;;;;23.95;48.65;92914.22;4945690;28;20102;-93
2022/08/16 02:52:17;;;;;;;26.05;15.45;;;;;;;23.95;48.61;92914.94;4954508;28;20031;-92
2022/08/16 02:54:52;;;;;;;23.67;13.43;;;;;;;23.95;48.62;92914.94;4984394;28;20045;-93
2022/08/16 02:57:32;;;;;;;24.20;14.20;;;;;;;23.93;48.50;92923.78;4969227;28;20039;-92
2022/08/16 03:00:06;;;;;;;24.42;14.20;;;;;;;23.94;48.67;92924.53;4950424;28;20046;-93
2022/08/16 03:02:40;;;;;;;20.95;12.95;;;;;;;23.94;48.56;92924.53;4950941;28;20043;-92
2022/08/16 03:05:10;;;;;;;23.27;14.45;;;;;;;23.93;48.56;92923.78;4952705;28;20046;-93
2022/08/16 03:07:37;;;;;;;23.20;13.45;;;;;;;23.95;48.44;92925.25;4933632;28;20546;-93
2022/08/16 03:10:08;;;;;;;21.65;13.00;;;;;;;23.94;48.51;92930.03;4956609;28;20064;-93
2022/08/16 03:12:36;;;;;;;23.00;12.63;;;;;;;23.92;48.43;92927.84;4956816;28;20065;-93
2022/08/16 03:15:07;;;;;;;24.15;13.63;;;;;;;23.95;48.44;92939.06;4969660;28;20171;-93
2022/08/16 03:17:34;;;;;;;19.08;12.40;;;;;;;23.95;48.61;92936.31;4936017;28;20559;-92
2022/08/16 03:20:05;;;;;;;23.48;13.98;;;;;;;23.95;48.42;92939.78;4969704;28;20545;-93
2022/08/16 03:22:32;;;;;;;20.77;12.57;;;;;;;23.93;48.84;92947.91;4967162;28;20113;-93
2022/08/16 03:25:01;;;;;;;22.40;13.50;;;;;;;23.92;48.70;92946.44;4952866;28;20043;-92
2022/08/16 03:27:37;;;;;;;21.98;12.27;;;;;;;23.93;48.29;92945.13;4940331;28;20039;-93
2022/08/16 03:30:14;;;;;;;22.60;13.25;;;;;;;23.92;48.55;92941.66;4971112;28;20098;-93
2022/08/16 03:32:52;;;;;;;21.77;12.80;;;;;;;23.91;48.59;92936.69;5017637;28;20033;-92
2022/08/16 03:35:22;;;;;;;22.23;12.98;;;;;;;23.92;48.46;92930.59;5024334;28;20576;-92
2022/08/16 03:37:55;;;;;;;19.50;11.55;;;;;;;23.93;48.39;92929.31;5011070;28;20041;-92
2022/08/16 03:40:22;;;;;;;21.48;12.63;;;;;;;23.91;48.48;92936.69;4994733;28;20065;-92
2022/08/16 03:42:48;;;;;;;20.75;11.82;;;;;;;23.92;48.68;92938.88;5033804;28;20500;-93
2022/08/16 03:45:17;;;;;;;19.85;10.55;;;;;;;23.95;48.38;92941.81;4991800;28;20516;-93
2022/08/16 03:47:42;;;;;;;19.02;10.95;;;;;;;23.93;48.48;92936.84;5022586;28;20451;-88
2022/08/16 03:50:08;;;;;;;22.55;12.63;;;;;;;23.93;48.24;92923.06;5015697;28;20033;-89
2022/08/16 03:52:34;;;;;;;18.90;12.95;;;;;;;23.92;48.32;92918.81;5017178;28;20033;-92
2022/08/16 03:55:02;;;;;;;18.25;11.05;;;;;;;23.93;48.39;92925.81;5010884;28;20133;-90
2022/08/16 03:57:31;;;;;;;18.25;11.40;;;;;;;23.93;48.38;92925.81;4995448;28;20049;-89
2022/08/16 03:59:56;;;;;;;21.25;11.65;;;;;;;23.98;48.18;92926.91;5007974;28;20030;-89
2022/08/16 04:02:23;;;;;;;18.23;10.95;;;;;;;23.99;48.36;92920.81;4979552;28;20115;-91
2022/08/16 04:04:58;;;;;;;23.58;11.48;;;;;;;23.98;48.41;92919.34;5006848;28;20041;-93
2022/08/16 04:07:25;;;;;;;18.95;10.68;;;;;;;24.03;48.25;92912.91;5035342;28;20071;-92
2022/08/16 04:09:51;;;;;;;18.02;10.77;;;;;;;24.01;48.37;92920.28;5007390;28;20045;-92
2022/08/16 04:12:16;;;;;;;14.90;9.82;;;;;;;23.92;48.48;92910.53;4995628;28;20035;-94
2022/08/16 04:15:11;;;;;;;23.67;11.35;;;;;;;23.91;48.26;92904.28;4997902;28;20048;-94
2022/08/16 04:17:39;;;;;;;20.77;10.70;;;;;;;23.91;48.31;92903.56;4937606;28;20137;-93
2022/08/16 04:20:07;;;;;;;19.00;10.45;;;;;;;23.91;48.44;92909.06;4972323;28;20069;-93
2022/08/16 04:25:27;;;;;;;28.90;6.20;;;;;;;23.83;47.93;92911.84;5025816;28;20056;-91
2022/08/16 04:28:03;;;;;;;;;;;;;;;;;;;;;
2022/08/16 04:30:29;;;;;;;24.45;10.93;;;;;;;23.82;47.69;92920.69;5053374;28;20071;-94
2022/08/16 04:32:55;;;;;;;31.05;9.60;;;;;;;23.80;47.05;92912.25;5036085;28;20806;-88
2022/08/16 04:35:22;;;;;;;37.03;18.98;;;;;;;23.80;47.34;92926.06;5053785;28;20138;-89
2022/08/16 04:37:51;;;;;;;58.88;31.38;;;;;;;23.89;47.20;92931.72;5031273;28;20121;-90
2022/08/16 04:40:17;;;;;;;36.13;19.35;;;;;;;23.88;47.25;92935.78;5062004;28;20052;-91
2022/08/16 04:42:42;;;;;;;44.25;29.35;;;;;;;23.85;47.19;92939.63;5032769;28;20140;-88
2022/08/16 04:45:09;;;;;;;21.02;8.85;;;;;;;23.88;46.87;92933.00;5057533;28;20415;-86
2022/08/16 04:47:38;;;;;;;28.08;8.18;;;;;;;23.88;46.92;92930.25;5054787;28;20047;-91
2022/08/16 04:50:07;;;;;;;15.02;5.40;;;;;;;23.89;46.77;92934.47;5074218;28;20033;-94
2022/08/16 04:55:35;;;;;;;14.57;5.75;;;;;;;23.84;46.83;92926.41;5060592;22;20041;-92
2022/08/16 04:58:03;;;;;;;16.05;6.50;;;;;;;23.86;46.80;92915.53;5002484;28;20096;-93
2022/08/16 05:00:32;;;;;;;11.27;7.53;;;;;;;23.71;47.09;92927.38;4998094;28;20026;-93
2022/08/16 05:03:19;;;;;;;20.35;9.15;;;;;;;23.66;47.10;92920.03;5163506;23;20069;-93
2022/08/16 05:05:44;;;;;;;14.23;8.23;;;;;;;23.68;47.62;92917.44;4999504;28;20065;-88
2022/08/16 05:08:10;;;;;;;15.48;8.48;;;;;;;23.60;47.50;92918.78;5013007;28;20287;-92
2022/08/16 05:10:36;;;;;;;16.30;5.78;;;;;;;23.57;47.45;92926.16;5035601;28;20041;-93
2022/08/16 05:13:03;;;;;;;13.75;9.40;;;;;;;23.39;47.70;92930.00;5010923;28;20148;-94
2022/08/16 05:15:28;;;;;;;17.35;7.63;;;;;;;23.19;48.29;92934.47;5018788;28;20164;-92
2022/08/16 05:17:54;;;;;;;16.25;5.07;;;;;;;23.27;48.43;92939.97;5028056;28;20116;-92
2022/08/16 05:20:20;;;;;;;16.77;6.20;;;;;;;23.28;48.14;92935.94;5033161;28;20369;-90
2022/08/16 05:22:45;;;;;;;22.42;8.20;;;;;;;23.30;48.11;92938.88;5015416;28;20186;-93
2022/08/16 05:25:14;;;;;;;68.15;16.88;;;;;;;23.21;47.92;92940.88;4996578;28;20049;-92
2022/08/16 05:27:41;;;;;;;30.85;10.48;;;;;;;23.21;48.36;92929.84;5005810;28;20531;-91
2022/08/16 05:30:12;;;;;;;13.38;7.72;;;;;;;23.10;48.54;92943.31;5033283;28;20063;-93
2022/08/16 05:32:46;;;;;;;10.68;5.03;;;;;;;23.07;48.93;92941.66;5006842;28;20045;-93
2022/08/16 05:35:14;;;;;;;11.48;5.20;;;;;;;23.15;48.93;92951.41;5025811;28;20041;-93
2022/08/16 05:37:44;;;;;;;14.55;5.05;;;;;;;23.15;48.89;92950.66;5015810;28;20100;-93
2022/08/16 05:40:10;;;;;;;19.03;6.97;;;;;;;23.07;48.77;92950.66;5013244;28;20033;-92
2022/08/16 05:42:39;;;;;;;28.25;8.80;;;;;;;23.18;48.36;92949.53;5033457;28;20037;-95
2022/08/16 05:45:05;;;;;;;26.45;10.35;;;;;;;23.16;48.31;92947.34;5020551;28;20029;-94
2022/08/16 05:48:07;;;;;;;19.42;11.45;;;;;;;23.17;48.34;92948.78;5023001;28;20157;-93
2022/08/16 05:51:53;;;;;;;23.35;12.75;;;;;;;23.10;48.29;92949.56;5037567;28;20045;-95
2022/08/16 05:54:48;;;;;;;48.92;23.63;;;;;;;23.09;48.17;92956.34;5039435;28;20069;-94
2022/08/16 05:57:18;;;;;;;22.75;11.40;;;;;;;23.08;48.14;92952.13;4974062;28;20090;-92
2022/08/16 05:59:58;;;;;;;39.92;13.98;;;;;;;23.08;48.14;92949.38;4944972;28;20128;-95
2022/08/16 06:02:42;;;;;;;36.20;13.63;;;;;;;23.08;48.31;92959.66;4953695;28;20031;-94
2022/08/16 06:05:12;;;;;;;24.88;12.55;;;;;;;23.15;48.61;92956.91;4961815;28;20047;-93
2022/08/16 06:07:51;;;;;;;24.10;10.73;;;;;;;23.07;48.55;92963.72;5073466;23;20044;-92
2022/08/16 06:10:17;;;;;;;20.42;9.73;;;;;;;23.04;48.32;92960.03;5028282;28;20063;-92
2022/08/16 06:12:43;;;;;;;18.10;9.27;;;;;;;23.07;48.63;92967.19;5024803;28;20072;-91
2022/08/16 06:15:14;;;;;;;15.18;9.05;;;;;;;23.13;48.28;92973.28;5066393;28;20044;-90
2022/08/16 06:17:40;;;;;;;13.35;8.77;;;;;;;23.12;48.27;92984.84;5023583;28;20058;-88
2022/08/16 06:20:10;;;;;;;13.85;8.75;;;;;;;23.15;47.92;92978.22;5039482;28;20490;-93
2022/08/16 06:22:37;;;;;;;14.48;8.60;;;;;;;23.19;47.99;92981.34;5035419;28;20135;-93
2022/08/16 06:25:05;;;;;;;14.10;7.57;;;;;;;23.18;47.94;92982.63;5026950;28;20148;-93
2022/08/16 06:27:34;;;;;;;14.60;7.18;;;;;;;23.22;47.55;92991.25;5036920;22;20728;-95
2022/08/16 06:30:31;;;;;;;13.43;6.40;;;;;;;23.25;47.82;92981.88;5069125;28;20605;-96
2022/08/16 06:33:23;;;;;;;16.08;7.20;;;;;;;23.23;47.90;92993.47;5044295;28;20029;-94
2022/08/16 06:35:50;;;;;;;36.47;10.80;;;;;;;23.19;47.83;92998.63;4985571;28;20046;-95
2022/08/16 06:38:16;;;;;;;18.75;7.40;;;;;;;23.14;47.92;92994.03;4971984;28;20043;-92
2022/08/16 06:41:04;;;;;;;23.52;6.82;;;;;;;23.10;48.10;92995.69;4973127;28;20383;-94
2022/08/16 06:43:46;;;;;;;19.75;6.95;;;;;;;23.10;48.09;92999.19;4950161;28;20137;-91
2022/08/16 06:46:26;;;;;;;15.50;7.85;;;;;;;23.08;48.14;92990.72;4982878;28;20104;-95
2022/08/16 06:48:54;;;;;;;18.45;8.57;;;;;;;23.01;48.44;92999.72;4946738;28;20038;-92
2022/08/16 06:51:59;;;;;;;24.20;13.23;;;;;;;23.14;48.08;92993.31;4970437;28;20046;-94
2022/08/16 06:54:25;;;;;;;55.63;20.40;;;;;;;23.06;48.46;92996.06;4947878;28;20157;-94
2022/08/16 06:56:53;;;;;;;30.25;14.43;;;;;;;23.01;48.32;92996.97;4947396;28;20399;-96
2022/08/16 06:59:19;;;;;;;38.10;17.08;;;;;;;23.10;48.38;92995.69;4964649;28;20119;-94
2022/08/16 07:07:00;;;;;;;128.40;52.15;;;;;;;23.04;48.87;92993.09;4990985;23;20045;-94
2022/08/16 07:09:39;;;;;;;105.65;44.90;;;;;;;23.06;48.71;92987.78;5020643;28;20061;-95
2022/08/16 07:12:05;;;;;;;67.70;29.02;;;;;;;22.98;49.04;92991.81;5034979;23;20077;-93
2022/08/16 07:14:32;;;;;;;52.08;25.13;;;;;;;23.11;48.56;92995.16;5028249;28;20607;-92
2022/08/16 07:17:08;;;;;;;36.87;21.23;;;;;;;23.00;49.03;93003.03;5032821;28;20079;-91
2022/08/16 07:22:32;;;;;;;31.00;17.73;;;;;;;23.00;49.22;93012.03;4928182;29;20086;-93
2022/08/16 07:25:14;;;;;;;28.92;15.43;;;;;;;23.06;49.08;93007.09;4906758;29;20032;-93
2022/08/16 07:27:48;;;;;;;30.65;14.10;;;;;;;23.06;49.31;93012.59;4917965;29;20881;-94
2022/08/16 07:30:14;;;;;;;18.25;10.50;;;;;;;23.07;49.17;93007.81;4958310;23;20132;-93
2022/08/16 07:32:41;;;;;;;17.67;9.77;;;;;;;23.17;48.98;93014.25;5020548;28;20088;-93
2022/08/16 07:35:33;;;;;;;23.38;13.95;;;;;;;23.17;49.02;93017.72;4988024;28;20034;-94
2022/08/16 07:37:59;;;;;;;64.38;37.90;;;;;;;23.11;48.75;93010.94;5033489;28;20125;-93
2022/08/16 07:40:32;;;;;;;49.88;21.88;;;;;;;23.06;49.05;93017.38;4978931;28;20061;-93
2022/08/16 07:42:58;;;;;;;39.28;19.17;;;;;;;23.10;49.05;93017.75;5018703;28;20056;-93
2022/08/16 07:45:37;;;;;;;40.67;18.92;;;;;;;23.17;48.55;93020.50;4984140;28;20452;-94
2022/08/16 07:51:17;;;;;;;28.52;15.50;;;;;;;23.19;48.56;93030.97;5416315;22;20054;-95
2022/08/16 07:53:51;;;;;;;19.80;11.57;;;;;;;23.13;48.33;93030.44;4948627;28;20046;-93
2022/08/16 07:56:17;;;;;;;32.45;13.00;;;;;;;23.13;48.27;93030.44;5025856;22;20116;-93
2022/08/16 07:58:44;;;;;;;31.92;13.13;;;;;;;23.13;48.27;93028.41;4999473;28;20110;-88
2022/08/16 08:01:12;;;;;;;29.52;14.63;;;;;;;23.09;48.24;93030.81;5029235;28;20526;-90
2022/08/16 08:03:42;;;;;;;30.67;17.75;;;;;;;23.15;48.17;93033.38;5028185;28;20059;-89
2022/08/16 08:06:08;;;;;;;;;;;;;;;23.18;47.92;93029.50;5020518;28;20050;-89
2022/08/16 08:08:33;;;;;;;65.20;33.45;;;;;;;23.24;47.66;93025.28;5050092;28;19927;-88
2022/08/16 08:10:59;;;;;;;66.60;29.30;;;;;;;23.13;47.94;93027.69;5026260;28;20049;-89
2022/08/16 08:13:24;;;;;;;47.63;21.95;;;;;;;23.09;48.17;93024.56;5010299;28;20122;-88
2022/08/16 08:15:50;;;;;;;54.90;20.15;;;;;;;23.07;48.01;93030.63;5001171;28;20115;-90
2022/08/16 08:18:18;;;;;;;36.88;19.20;;;;;;;23.19;47.74;93036.47;5039030;28;20033;-92
2022/08/16 08:20:47;;;;;;;31.35;16.92;;;;;;;23.19;47.41;93034.47;5002954;28;20392;-90
2022/08/16 08:23:13;;;;;;;31.30;14.40;;;;;;;23.22;47.41;93038.88;5000297;28;20124;-92
2022/08/16 08:25:39;;;;;;;24.48;10.98;;;;;;;23.24;47.84;93041.09;4993537;28;20037;-89
2022/08/16 08:28:05;;;;;;;22.45;9.95;;;;;;;23.18;48.21;93038.50;5011048;28;20131;-90
2022/08/16 08:30:31;;;;;;;28.02;8.98;;;;;;;23.18;47.69;93049.53;5010664;28;20453;-91
2022/08/16 08:32:58;;;;;;;29.65;8.02;;;;;;;23.28;47.55;93040.72;4994480;28;20033;-93
2022/08/16 08:35:34;;;;;;;25.85;8.80;;;;;;;23.29;47.38;93042.19;4991115;28;20049;-94
2022/08/16 08:38:46;;;;;;;30.27;14.73;;;;;;;23.24;47.58;93043.84;4994554;28;20037;-94
2022/08/16 08:41:14;;;;;;;58.88;15.60;;;;;;;23.26;47.58;93055.06;5039891;28;20033;-91
2022/08/16 08:43:52;;;;;;;34.97;13.10;;;;;;;23.23;47.75;93054.16;5002453;28;20065;-93
2022/08/16 08:46:20;;;;;;;26.52;11.07;;;;;;;23.18;47.65;93046.78;4992790;28;20042;-93
2022/08/16 08:48:47;;;;;;;79.47;17.85;;;;;;;23.21;47.68;93050.47;5008349;28;20048;-94
2022/08/16 08:51:12;;;;;;;87.82;17.70;;;;;;;23.13;47.83;93058.00;5003108;28;20084;-92
2022/08/16 08:53:47;;;;;;;90.22;13.95;;;;;;;23.18;47.90;93049.53;5014922;28;20033;-92
2022/08/16 08:56:13;;;;;;;49.13;10.20;;;;;;;23.15;47.68;93052.69;5018885;28;20045;-93
2022/08/16 08:58:38;;;;;;;57.55;10.00;;;;;;;23.19;47.61;93042.00;5030908;23;20101;-93
2022/08/16 09:01:11;;;;;;;31.65;6.65;;;;;;;23.12;48.12;93056.53;5012784;28;20070;-94
2022/08/16 09:03:46;;;;;;;20.50;7.25;;;;;;;23.15;47.89;93053.41;5006878;28;20061;-95
2022/08/16 09:08:42;;;;;;;60.73;23.53;;;;;;;23.12;48.00;93053.78;5032065;22;20054;-95
2022/08/16 09:11:11;;;;;;;52.58;23.50;;;;;;;23.23;47.88;93048.63;5021026;28;20369;-94
2022/08/16 09:13:36;;;;;;;52.35;20.83;;;;;;;23.21;47.67;93048.44;5031459;28;20037;-93
2022/08/16 09:16:03;;;;;;;73.13;22.27;;;;;;;23.18;47.59;93052.28;5003500;28;20049;-92
2022/08/16 09:18:29;;;;;;;38.83;18.20;;;;;;;23.22;47.33;93055.44;4996705;28;20050;-93
2022/08/16 09:20:55;;;;;;;43.63;15.80;;;;;;;23.26;47.57;93055.06;5000146;28;20045;-95
2022/08/16 09:23:31;;;;;;;21.40;11.05;;;;;;;23.28;47.48;93057.28;5017019;28;20073;-95
2022/08/16 09:25:58;;;;;;;20.17;9.50;;;;;;;23.31;47.56;93045.88;5005700;28;20029;-95
2022/08/16 09:31:51;;;;;;;25.83;13.25;;;;;;;23.24;47.72;93046.59;5059269;22;20049;-91
2022/08/16 09:34:46;;;;;;;36.17;17.27;;;;;;;23.24;47.72;93050.09;4973307;28;20474;-96
2022/08/16 09:37:16;;;;;;;64.55;31.73;;;;;;;23.23;47.59;93045.88;5047488;23;20045;-94
2022/08/16 09:45:54;;;;;;;53.35;23.55;;;;;;;23.29;47.51;93039.44;5010452;28;20060;-94
2022/08/16 09:48:19;;;;;;;43.30;20.48;;;;;;;23.34;47.51;93041.28;4950089;28;20054;-95
2022/08/16 09:53:21;;;;;;;45.80;17.33;;;;;;;23.28;47.64;93035.22;5026061;28;20053;-94
2022/08/16 09:56:26;;;;;;;36.80;16.27;;;;;;;23.32;47.22;93043.84;5008272;28;20100;-96
2022/08/16 09:59:05;;;;;;;46.45;16.17;;;;;;;23.36;47.23;93035.94;5038993;22;20180;-95
2022/08/16 10:01:31;;;;;;;64.45;14.50;;;;;;;23.31;47.32;93034.09;4973360;28;20084;-93
2022/08/16 10:03:57;;;;;;;50.50;15.07;;;;;;;23.35;47.01;93035.22;4974529;28;20054;-92
2022/08/16 10:06:23;;;;;;;37.53;15.55;;;;;;;23.36;47.06;93033.19;4983387;28;20517;-94
2022/08/16 10:08:49;;;;;;;32.58;12.77;;;;;;;23.34;46.98;93031.00;4989052;28;20035;-92
2022/08/16 10:13:58;;;;;;;26.83;12.02;;;;;;;23.40;46.76;93033.53;5010276;28;20057;-91
2022/08/16 10:16:24;;;;;;;24.67;10.15;;;;;;;23.43;46.72;93032.44;5006633;28;20058;-89
2022/08/16 10:18:50;;;;;;;24.65;8.73;;;;;;;23.43;46.75;93030.41;4980152;28;20041;-89
2022/08/16 10:21:16;;;;;;;16.13;7.97;;;;;;;23.45;46.61;93032.63;4960675;28;20077;-91
2022/08/16 10:23:42;;;;;;;9.77;5.78;;;;;;;23.45;46.22;93024.34;4969628;28;20034;-90
2022/08/16 10:26:08;;;;;;;16.02;7.55;;;;;;;23.43;46.44;93022.13;4977077;28;20053;-89
2022/08/16 10:28:33;;;;;;;16.38;8.23;;;;;;;23.47;46.22;93028.03;4960437;28;20038;-90
2022/08/16 10:31:00;;;;;;;13.88;7.35;;;;;;;23.48;46.11;93035.00;4932024;28;20280;-90
2022/08/16 10:33:27;;;;;;;13.00;5.97;;;;;;;23.53;46.01;93034.13;4961428;28;20150;-93
2022/08/16 10:35:55;;;;;;;12.65;5.35;;;;;;;23.60;45.67;93032.63;4978466;28;20038;-91
2022/08/16 10:38:22;;;;;;;12.07;5.22;;;;;;;23.57;45.74;93028.97;4969320;28;20046;-90
2022/08/16 10:40:51;;;;;;;10.40;5.30;;;;;;;23.60;45.70;93034.69;4995597;28;20038;-91
2022/08/16 10:43:19;;;;;;;9.45;5.53;;;;;;;23.58;45.74;93040.75;4995140;28;20035;-91
2022/08/16 10:45:47;;;;;;;6.47;4.65;;;;;;;23.55;45.89;93050.88;4978544;28;20077;-91
2022/08/16 10:48:15;;;;;;;9.85;5.13;;;;;;;23.54;45.94;93035.59;4967754;28;20054;-92
2022/08/16 10:50:41;;;;;;;7.18;3.50;;;;;;;23.59;45.78;93031.19;4942593;28;20047;-90
2022/08/16 10:53:06;;;;;;;14.68;5.50;;;;;;;23.61;45.82;93041.63;4952608;28;20062;-89
2022/08/16 10:55:35;;;;;;;18.90;9.30;;;;;;;23.60;45.99;93026.41;4945553;28;20710;-91
2022/08/16 10:58:02;;;;;;;19.50;10.02;;;;;;;23.59;46.03;93031.19;4968431;28;20101;-92
2022/08/16 11:00:28;;;;;;;32.97;14.32;;;;;;;23.64;45.94;93035.00;4975387;28;20050;-90
2022/08/16 11:02:54;;;;;;;145.73;38.28;;;;;;;23.66;45.98;93029.69;4982611;23;20352;-90
2022/08/16 11:05:20;;;;;;;83.90;26.95;;;;;;;23.65;46.00;93036.47;5001404;28;20041;-91
2022/08/16 11:07:47;;;;;;;38.38;16.13;;;;;;;23.66;46.14;93026.91;5015696;28;20049;-92
2022/08/16 11:10:23;;;;;;;35.58;17.42;;;;;;;23.66;46.17;93026.91;4962603;28;20072;-93
2022/08/16 11:12:53;;;;;;;44.20;17.83;;;;;;;23.68;46.29;93027.09;5022060;28;20047;-93
2022/08/16 11:15:19;;;;;;;38.63;15.68;;;;;;;23.71;46.20;93028.75;5004151;28;20117;-93
2022/08/16 11:17:46;;;;;;;33.85;16.15;;;;;;;23.68;46.13;93027.09;5014168;28;20052;-90
2022/08/16 11:20:16;;;;;;;24.23;12.13;;;;;;;23.72;46.19;93028.19;5027155;28;20052;-92
2022/08/16 11:22:46;;;;;;;43.07;14.83;;;;;;;23.73;46.19;93017.91;4995140;28;20068;-93
2022/08/16 11:27:37;;;;;;;34.28;13.48;;;;;;;23.76;45.90;93017.53;5087045;23;20068;-93
2022/08/16 11:30:32;;;;;;;82.50;22.50;;;;;;;23.78;46.22;93012.19;5002807;28;20051;-95
2022/08/16 11:33:00;;;;;;;62.97;18.05;;;;;;;23.80;45.87;93012.38;4999325;28;20050;-92
2022/08/16 11:35:28;;;;;;;61.55;19.08;;;;;;;23.75;45.95;93016.06;4977358;28;20061;-95
2022/08/16 11:37:56;;;;;;;89.25;30.23;;;;;;;23.78;45.87;93019.72;4974591;28;20041;-90
2022/08/16 11:43:40;;;;;;;35.40;15.07;;;;;;;23.76;45.78;93014.03;4864314;29;20041;-92
2022/08/16 11:46:12;;;;;;;36.42;15.32;;;;;;;23.77;45.88;93012.75;4867732;29;20105;-93
2022/08/16 11:49:50;;;;;;;48.78;21.27;;;;;;;23.79;46.31;93010.91;4842686;29;20045;-92
2022/08/16 11:52:16;;;;;;;38.25;19.00;;;;;;;23.82;45.84;93014.53;4763353;30;20154;-96
2022/08/16 11:55:04;;;;;;;47.92;22.25;;;;;;;23.80;45.85;93014.41;4750289;30;20031;-95
2022/08/16 12:02:40;;;;;;;37.85;22.17;;;;;;;23.87;45.46;93006.06;4732471;22;20543;-95
2022/08/16 12:05:07;;;;;;;25.90;12.85;;;;;;;23.93;45.10;93014.91;5004184;28;20069;-94
2022/08/16 12:07:36;;;;;;;17.08;9.77;;;;;;;23.86;44.84;93017.66;5000782;28;20025;-96
2022/08/16 12:10:04;;;;;;;25.70;13.00;;;;;;;23.91;45.01;93019.50;5043419;28;20045;-93
2022/08/16 12:12:43;;;;;;;16.77;10.95;;;;;;;23.87;45.07;93005.34;5008926;28;20061;-89
2022/08/16 12:15:10;;;;;;;26.40;12.98;;;;;;;23.92;44.97;93018.22;4987023;28;20541;-93
2022/08/16 12:17:35;;;;;;;37.65;18.17;;;;;;;23.92;45.15;93009.94;4982857;28;20050;-94
2022/08/16 12:20:11;;;;;;;70.65;30.20;;;;;;;23.91;45.11;93016.75;4959190;28;20081;-94
2022/08/16 12:22:36;;;;;;;72.65;30.90;;;;;;;23.95;45.05;93008.81;4993716;28;20069;-89
2022/08/16 12:25:10;;;;;;;75.70;32.38;;;;;;;23.91;44.99;93006.44;4949777;28;20149;-89
2022/08/16 12:27:45;;;;;;;63.97;30.92;;;;;;;23.96;45.29;93015.06;4976298;28;20529;-93
2022/08/16 12:30:11;;;;;;;73.72;33.17;;;;;;;23.98;45.06;93010.47;4967206;28;20049;-94